Hillsboro, KS (67063)

12:47 AM CST on December 04, 2016 (GMT -0600)
South Cottonwood Hillsboro | | Change Station

Elev 1388 ft 38.30 °N, 97.21 °W | Updated 3 seconds ago

Light Rain
Light Rain Mist
39.3 °F
Feels Like 39 °F
N
0.0
Wind Variable Wind from SSE
Gusts 0.0 mph

Today
High -- | Low -- °F
--% Chance of Precip.
Yesterday
High -- | Low -- °F
Precip. -- in
Pressure 30.08 in
Visibility 4.0 miles
Clouds Overcast 2000 ft
Windchill 39 °F
Dew Point 38 °F
Humidity 95%
Rainfall 0.05 in
Snow Depth Not available.
7:30 AM 5:08 PM
Waxing Crescent, 20% visible
METAR KEWK 040556Z AUTO 04003KT 4SM -RA BR OVC020 04/04 A3006 RMK AO2 SLP186 P0002 60018 T00390039 10050 20039 58006
Pressure 30.08 in
Visibility 4.0 miles
Clouds Overcast 2000 ft
Windchill 39 °F
Dew Point 38 °F
Humidity 95%
Rainfall 0.05 in
Snow Depth Not available.
7:30 AM 5:08 PM
Waxing Crescent, 20% visible
METAR KEWK 040556Z AUTO 04003KT 4SM -RA BR OVC020 04/04 A3006 RMK AO2 SLP186 P0002 60018 T00390039 10050 20039 58006

10-Day Weather Forecast

Almanac

Astronomy

Dec. 04, 2016 Rise Set
Actual Time
Civil Twilight
Nautical Twilight
Astronomical Twilight
Moon
Length of Visible Light
Length of Day
Tomorrow will be .
, % of the Moon is Illuminated

Today's Extremes

State Highs State Lows

Community

WunderPhotos

Upload Photos

1,955,588 photos uploaded!

WunderBlog® & News

Nearby

Air Quality

  Air Quality AQ Index Pollutant
Not available.

Snow Depth

Station Depth Elevation

Earthquake Activity

City Distance Mag. Time & Date
Minimum magnitude displayed is 2.5.

Coastal Water Temperatures

Place Temperature

Stations

Nearby Weather Stations

Station Location Temp. Windchill Dew Point Humidity Wind Precip. Elev Updated Type
                   

Watches & Warnings

There are currently no watches in effect.